createdAt,value
2017-07-17T00:00:24.669Z,24.24
2017-07-17T00:01:33.964Z,24.15
2017-07-17T00:02:42.943Z,24.24
2017-07-17T00:03:51.596Z,24.27
2017-07-17T00:05:00.873Z,24.21
2017-07-17T00:06:09.853Z,24.21
2017-07-17T00:07:19.141Z,24.2
2017-07-17T00:08:28.476Z,24.22
2017-07-17T00:09:37.556Z,24.16
2017-07-17T00:10:46.537Z,24.16
2017-07-17T00:11:55.488Z,24.2
2017-07-17T00:13:04.455Z,24.13
2017-07-17T00:14:13.734Z,24.24
2017-07-17T00:15:23.473Z,24.21
2017-07-17T00:16:32.774Z,24.24
2017-07-17T00:17:42.064Z,24.22
2017-07-17T00:18:51.050Z,24.1
2017-07-17T00:20:00.664Z,24.2
2017-07-17T00:21:10.313Z,24.21
2017-07-17T00:22:19.610Z,24.08
2017-07-17T00:23:28.910Z,24.12
2017-07-17T00:24:37.578Z,24.1
2017-07-17T00:25:47.207Z,24.21
2017-07-17T00:26:56.541Z,24.1
2017-07-17T00:28:05.825Z,24.08
2017-07-17T00:29:15.118Z,24.03
2017-07-17T00:30:23.775Z,24.08
2017-07-17T00:31:33.377Z,24.09
2017-07-17T00:32:42.354Z,24.12
2017-07-17T00:33:51.021Z,24.12
2017-07-17T00:35:00.299Z,24.09
2017-07-17T00:36:09.587Z,24.09
2017-07-17T00:37:18.307Z,24.09
2017-07-17T00:38:27.447Z,23.95
2017-07-17T00:39:37.381Z,24.08
2017-07-17T00:40:46.667Z,24.08
2017-07-17T00:41:56.272Z,24.08
2017-07-17T00:43:04.927Z,24.05
2017-07-17T00:44:14.214Z,24.06
2017-07-17T00:45:22.885Z,24.08
2017-07-17T00:46:32.175Z,24.08
2017-07-17T00:47:41.446Z,24.08
2017-07-17T00:48:50.738Z,24.06
2017-07-17T00:49:59.430Z,24.09
2017-07-17T00:51:08.088Z,24.02
2017-07-17T00:52:17.383Z,24.05
2017-07-17T00:53:26.364Z,24.03
2017-07-17T00:54:35.338Z,24.03
2017-07-17T00:55:44.146Z,24.05
2017-07-17T00:56:53.149Z,24.08
2017-07-17T00:58:02.132Z,24.03
2017-07-17T00:59:10.803Z,24
2017-07-17T01:00:19.450Z,24.05
2017-07-17T01:01:28.623Z,24.02
2017-07-17T01:02:37.591Z,24.03
2017-07-17T01:03:47.570Z,24.03
2017-07-17T01:04:56.544Z,24
2017-07-17T01:06:05.521Z,23.98
2017-07-17T01:07:14.521Z,23.97
2017-07-17T01:08:23.491Z,24.09
2017-07-17T01:09:32.467Z,24.02
2017-07-17T01:10:41.424Z,24.05
2017-07-17T01:11:50.703Z,24.06
2017-07-17T01:12:59.992Z,23.98
2017-07-17T01:14:09.598Z,24.06
2017-07-17T01:15:18.572Z,24.08
2017-07-17T01:16:27.550Z,24.03
2017-07-17T01:17:36.262Z,23.94
2017-07-17T01:18:46.011Z,23.98
2017-07-17T01:19:54.680Z,24
2017-07-17T01:21:03.643Z,23.94
2017-07-17T01:22:12.606Z,23.95
2017-07-17T01:23:21.905Z,23.93
2017-07-17T01:24:30.662Z,23.95
2017-07-17T01:25:39.316Z,23.97
2017-07-17T01:26:48.617Z,24.02
2017-07-17T01:27:57.642Z,23.98
2017-07-17T01:29:06.614Z,23.88
2017-07-17T01:30:15.559Z,24
2017-07-17T01:31:25.225Z,23.9
2017-07-17T01:32:33.865Z,23.95
2017-07-17T01:33:42.839Z,23.95
2017-07-17T01:34:51.496Z,23.95
2017-07-17T01:36:00.624Z,23.98
2017-07-17T01:37:09.270Z,23.97
2017-07-17T01:38:17.923Z,23.94
2017-07-17T01:39:26.889Z,23.88
2017-07-17T01:40:35.534Z,23.93
2017-07-17T01:41:44.866Z,23.9
2017-07-17T01:42:53.825Z,23.9
2017-07-17T01:44:03.415Z,23.9
2017-07-17T01:45:12.374Z,23.93
2017-07-17T01:46:21.349Z,23.95
2017-07-17T01:47:30.634Z,23.93
2017-07-17T01:48:39.607Z,23.9
2017-07-17T01:49:48.592Z,23.95
2017-07-17T01:50:58.199Z,23.91
2017-07-17T01:52:07.169Z,23.94
2017-07-17T01:53:15.973Z,23.91
2017-07-17T01:54:24.946Z,23.94
2017-07-17T01:55:33.592Z,23.88
2017-07-17T01:56:42.556Z,23.91
2017-07-17T01:57:51.834Z,23.8
2017-07-17T01:59:01.742Z,23.85
2017-07-17T02:00:10.716Z,23.79
2017-07-17T02:01:19.677Z,23.88
2017-07-17T02:02:28.340Z,23.94
2017-07-17T02:03:37.303Z,23.87
2017-07-17T02:04:46.112Z,23.79
2017-07-17T02:05:54.769Z,23.87
2017-07-17T02:07:03.743Z,23.9
2017-07-17T02:08:13.035Z,23.9
2017-07-17T02:09:21.697Z,23.9
2017-07-17T02:10:30.542Z,23.85
2017-07-17T02:11:39.815Z,23.8
2017-07-17T02:12:48.810Z,23.84
2017-07-17T02:13:57.483Z,23.83
2017-07-17T02:15:06.780Z,23.9
2017-07-17T02:16:15.774Z,23.9
2017-07-17T02:17:24.728Z,23.84
2017-07-17T02:18:33.385Z,23.91
2017-07-17T02:19:42.983Z,23.84
2017-07-17T02:20:52.279Z,23.9
2017-07-17T02:22:01.270Z,23.9
2017-07-17T02:23:09.935Z,23.88
2017-07-17T02:24:18.913Z,23.87
2017-07-17T02:25:27.882Z,23.9
2017-07-17T02:26:36.842Z,23.88
2017-07-17T02:27:46.249Z,23.85
2017-07-17T02:28:55.207Z,23.87
2017-07-17T02:30:04.179Z,23.94
2017-07-17T02:31:13.167Z,23.83
2017-07-17T02:32:21.827Z,23.76
2017-07-17T02:33:30.802Z,23.8
2017-07-17T02:34:39.761Z,23.84
2017-07-17T02:35:48.730Z,23.83
2017-07-17T02:36:58.327Z,23.9
2017-07-17T02:38:06.987Z,23.83
2017-07-17T02:39:16.613Z,23.78
2017-07-17T02:40:25.892Z,23.83
2017-07-17T02:41:35.181Z,23.85
2017-07-17T02:42:43.836Z,23.9
2017-07-17T02:43:52.801Z,23.87
2017-07-17T02:45:02.175Z,23.79
2017-07-17T02:46:10.837Z,23.87
2017-07-17T02:47:19.481Z,23.9
2017-07-17T02:48:28.449Z,23.87
2017-07-17T02:49:37.113Z,23.84
2017-07-17T02:50:46.911Z,23.9
2017-07-17T02:51:55.567Z,23.94
2017-07-17T02:53:04.847Z,23.9
2017-07-17T02:54:14.459Z,23.93
2017-07-17T02:55:23.769Z,24
2017-07-17T02:56:32.843Z,23.9
2017-07-17T02:57:41.509Z,23.88
2017-07-17T02:58:50.483Z,23.9
2017-07-17T02:59:59.448Z,23.84
2017-07-17T03:01:09.065Z,23.85
2017-07-17T03:02:17.762Z,23.83
2017-07-17T03:03:26.726Z,23.98
2017-07-17T03:04:36.319Z,23.9
2017-07-17T03:05:45.591Z,23.88
2017-07-17T03:06:54.238Z,23.84
2017-07-17T03:08:03.637Z,23.88
2017-07-17T03:09:12.920Z,23.91
2017-07-17T03:10:21.895Z,23.87
2017-07-17T03:11:30.954Z,23.87
2017-07-17T03:12:40.551Z,23.9
2017-07-17T03:13:49.632Z,23.95
2017-07-17T03:14:58.294Z,23.88
2017-07-17T03:16:07.899Z,23.84
2017-07-17T03:17:17.171Z,23.85
2017-07-17T03:18:26.797Z,23.88
2017-07-17T03:19:35.761Z,23.87
2017-07-17T03:20:44.727Z,23.87
2017-07-17T03:21:54.020Z,23.85
2017-07-17T03:23:03.058Z,23.88
2017-07-17T03:26:45.064Z,23.91
2017-07-17T03:27:54.674Z,23.84
2017-07-17T03:29:04.272Z,23.88
2017-07-17T03:30:13.251Z,23.84
2017-07-17T03:31:22.528Z,23.84
2017-07-17T03:32:31.651Z,23.93
2017-07-17T03:33:40.316Z,23.84
2017-07-17T03:34:48.988Z,23.94
2017-07-17T03:35:57.973Z,23.85
2017-07-17T03:37:06.626Z,23.79
2017-07-17T03:38:16.272Z,23.88
2017-07-17T03:41:57.623Z,23.8
2017-07-17T03:43:06.908Z,23.83
2017-07-17T03:44:15.579Z,23.83
2017-07-17T03:45:24.859Z,23.79
2017-07-17T03:49:06.977Z,23.83
2017-07-17T03:50:15.939Z,23.87
2017-07-17T03:51:25.230Z,23.78
2017-07-17T03:52:34.205Z,23.79
2017-07-17T03:53:42.861Z,23.78
2017-07-17T03:54:52.568Z,23.8
2017-07-17T03:56:01.529Z,23.75
2017-07-17T03:57:10.504Z,23.84
2017-07-17T03:58:19.488Z,23.85
2017-07-17T04:02:01.499Z,23.9
2017-07-17T04:03:10.776Z,23.87
2017-07-17T04:06:52.420Z,23.85
2017-07-17T04:10:35.267Z,23.78
2017-07-17T04:14:17.207Z,23.83
2017-07-17T04:15:26.807Z,23.78
2017-07-17T04:16:35.460Z,23.83
2017-07-17T04:17:44.441Z,23.78
2017-07-17T04:18:53.159Z,23.8
2017-07-17T04:20:02.777Z,23.83
2017-07-17T04:23:44.107Z,23.79
2017-07-17T04:24:52.763Z,23.78
2017-07-17T04:26:02.526Z,23.83
2017-07-17T04:27:11.248Z,23.72
2017-07-17T04:28:19.895Z,23.83
2017-07-17T04:29:29.174Z,23.8
2017-07-17T04:30:38.140Z,23.84
2017-07-17T04:31:46.948Z,23.76
2017-07-17T04:32:55.611Z,23.79
2017-07-17T04:34:04.273Z,23.84
2017-07-17T04:35:12.924Z,23.83
2017-07-17T04:36:22.213Z,23.88
2017-07-17T04:37:31.538Z,23.85
2017-07-17T04:38:40.503Z,23.83
2017-07-17T04:39:49.477Z,23.84
2017-07-17T04:40:59.068Z,23.85
2017-07-17T04:42:08.050Z,23.83
2017-07-17T04:43:17.486Z,23.83
2017-07-17T04:44:26.458Z,23.79
2017-07-17T04:45:35.438Z,23.76
2017-07-17T04:46:44.403Z,23.76
2017-07-17T04:47:53.686Z,23.83
2017-07-17T04:49:02.433Z,23.79
2017-07-17T04:50:11.404Z,23.78
2017-07-17T04:51:20.694Z,23.78
2017-07-17T04:52:29.988Z,23.84
2017-07-17T04:53:38.970Z,23.76
2017-07-17T04:54:47.929Z,23.79
2017-07-17T04:55:56.575Z,23.79
2017-07-17T04:57:06.507Z,23.84
2017-07-17T04:58:15.787Z,23.87
2017-07-17T04:59:24.434Z,23.94
2017-07-17T05:00:34.127Z,23.88
2017-07-17T05:01:43.416Z,23.9
2017-07-17T05:02:52.389Z,23.85
2017-07-17T05:04:01.679Z,23.9
2017-07-17T05:05:11.273Z,23.84
2017-07-17T05:06:20.985Z,23.84
2017-07-17T05:07:29.629Z,23.84
2017-07-17T05:08:38.913Z,23.87
2017-07-17T05:09:47.574Z,23.84
2017-07-17T05:10:56.542Z,23.85
2017-07-17T05:12:05.993Z,23.87
2017-07-17T05:13:15.598Z,23.84
2017-07-17T05:14:24.575Z,23.91
2017-07-17T05:15:33.856Z,23.88
2017-07-17T05:16:43.130Z,23.91
2017-07-17T05:17:52.403Z,23.83
2017-07-17T05:19:01.679Z,23.85
2017-07-17T05:20:10.345Z,23.85
2017-07-17T05:21:19.636Z,23.83
2017-07-17T05:22:28.603Z,23.93
2017-07-17T05:23:37.577Z,23.95
2017-07-17T05:24:46.539Z,23.88
2017-07-17T05:25:55.824Z,23.93
2017-07-17T05:27:04.476Z,23.94
2017-07-17T05:28:14.152Z,23.95
2017-07-17T05:29:23.427Z,23.85
2017-07-17T05:30:33.025Z,23.91
2017-07-17T05:31:41.997Z,23.87
2017-07-17T05:32:51.602Z,23.84
2017-07-17T05:34:00.556Z,23.93
2017-07-17T05:35:10.157Z,23.83
2017-07-17T05:36:19.126Z,23.84
2017-07-17T05:37:28.093Z,23.91
2017-07-17T05:38:37.367Z,23.94
2017-07-17T05:39:46.337Z,24
2017-07-17T05:40:55.150Z,23.95
2017-07-17T05:42:03.889Z,23.94
2017-07-17T05:43:13.490Z,23.97
2017-07-17T05:44:22.147Z,24.06
2017-07-17T05:45:30.806Z,24.08
2017-07-17T05:46:39.939Z,24.05
2017-07-17T05:47:49.245Z,24.1
2017-07-17T05:48:58.537Z,24.15
2017-07-17T05:50:07.194Z,24.15
2017-07-17T05:51:16.163Z,24.12
2017-07-17T05:52:25.284Z,24.18
2017-07-17T05:53:34.588Z,24.22
2017-07-17T05:54:43.871Z,24.24
2017-07-17T05:55:52.837Z,24.09
2017-07-17T05:57:01.805Z,24.28
2017-07-17T05:58:10.926Z,24.27
2017-07-17T05:59:20.207Z,24.31
2017-07-17T06:00:28.885Z,24.31
2017-07-17T06:01:37.860Z,24.31
2017-07-17T06:02:46.829Z,24.4
2017-07-17T06:03:56.590Z,24.39
2017-07-17T06:05:05.239Z,24.31
2017-07-17T06:06:14.212Z,24.28
2017-07-17T06:07:23.482Z,24.35
2017-07-17T06:08:32.454Z,24.42
2017-07-17T06:09:41.829Z,24.31
2017-07-17T06:10:51.104Z,24.39
2017-07-17T06:12:00.390Z,24.42
2017-07-17T06:13:09.358Z,24.45
2017-07-17T06:14:18.355Z,24.46
2017-07-17T06:15:27.697Z,24.46
2017-07-17T06:16:36.985Z,24.46
2017-07-17T06:17:45.648Z,24.52
2017-07-17T06:18:54.609Z,24.5
2017-07-17T06:20:03.887Z,24.52
2017-07-17T06:21:13.470Z,24.55
2017-07-17T06:22:22.134Z,24.55
2017-07-17T06:23:31.413Z,24.6
2017-07-17T06:24:40.089Z,24.57
2017-07-17T06:25:49.384Z,24.67
2017-07-17T06:26:58.707Z,24.62
2017-07-17T06:28:07.674Z,24.61
2017-07-17T06:29:16.674Z,24.62
2017-07-17T06:30:25.947Z,24.62
2017-07-17T06:31:34.917Z,24.64
2017-07-17T06:32:43.719Z,24.65
2017-07-17T06:33:52.379Z,24.73
2017-07-17T06:35:01.040Z,24.69
2017-07-17T06:36:09.700Z,24.67
2017-07-17T06:37:18.666Z,24.69
2017-07-17T06:38:27.820Z,24.76
2017-07-17T06:39:37.106Z,24.77
2017-07-17T06:40:46.402Z,24.76
2017-07-17T06:41:56.147Z,24.78
2017-07-17T06:43:05.189Z,24.77
2017-07-17T06:44:14.363Z,24.8
2017-07-17T06:45:23.642Z,24.8
2017-07-17T06:46:32.935Z,24.78
2017-07-17T06:47:42.233Z,24.78
2017-07-17T06:48:51.836Z,24.8
2017-07-17T06:50:00.853Z,24.83
2017-07-17T06:51:09.494Z,24.85
2017-07-17T06:52:18.459Z,24.81
2017-07-17T06:53:27.430Z,24.77
2017-07-17T06:54:36.083Z,24.78
2017-07-17T06:55:45.212Z,24.9
2017-07-17T06:56:54.872Z,24.91
2017-07-17T06:58:03.833Z,24.78
2017-07-17T06:59:12.489Z,24.81
2017-07-17T07:00:21.458Z,24.84
2017-07-17T07:01:30.226Z,24.78
2017-07-17T07:02:39.521Z,24.8
2017-07-17T07:03:48.500Z,24.78
2017-07-17T07:04:57.476Z,24.81
2017-07-17T07:06:06.147Z,24.8
2017-07-17T07:07:15.441Z,24.84
2017-07-17T07:08:24.415Z,24.78
2017-07-17T07:09:33.705Z,24.78
2017-07-17T07:10:43.310Z,24.81
2017-07-17T07:11:52.592Z,24.81
2017-07-17T07:13:01.271Z,24.88
2017-07-17T07:14:10.238Z,24.77
2017-07-17T07:15:19.213Z,24.81
2017-07-17T07:16:28.181Z,24.88
2017-07-17T07:17:37.461Z,24.95
2017-07-17T07:18:46.731Z,24.93
2017-07-17T07:19:55.388Z,24.91
2017-07-17T07:21:04.057Z,24.88
2017-07-17T07:22:13.009Z,24.95
2017-07-17T07:23:21.969Z,24.91
2017-07-17T07:24:31.128Z,24.93
2017-07-17T07:25:40.090Z,24.96
2017-07-17T07:26:49.468Z,24.95
2017-07-17T07:27:58.745Z,24.95
2017-07-17T07:29:08.024Z,24.95
2017-07-17T07:30:17.358Z,24.93
2017-07-17T07:31:26.636Z,25
2017-07-17T07:32:35.283Z,24.96
2017-07-17T07:33:43.935Z,25.05
2017-07-17T07:34:52.902Z,25.05
2017-07-17T07:36:02.316Z,25.02
2017-07-17T07:37:11.913Z,25.03
2017-07-17T07:38:20.880Z,25
2017-07-17T07:39:29.535Z,25.05
2017-07-17T07:40:38.807Z,25.05
2017-07-17T07:41:48.133Z,25.08
2017-07-17T07:42:57.102Z,25
2017-07-17T07:44:06.071Z,25.1
2017-07-17T07:45:15.031Z,25.05
2017-07-17T07:46:23.689Z,25.05
2017-07-17T07:47:32.823Z,25.09
2017-07-17T07:48:41.802Z,25.08
2017-07-17T07:49:50.764Z,25.08
2017-07-17T07:50:59.407Z,25.09
2017-07-17T07:52:08.685Z,25
2017-07-17T07:53:17.494Z,25.06
2017-07-17T07:54:26.767Z,25.14
2017-07-17T07:55:36.057Z,25.08
2017-07-17T07:56:44.720Z,25.09
2017-07-17T07:57:53.385Z,25.06
2017-07-17T07:59:02.451Z,25.06
2017-07-17T08:00:11.742Z,25.08
2017-07-17T08:01:20.722Z,25.09
2017-07-17T08:02:29.687Z,25.13
2017-07-17T08:03:38.351Z,25.13
2017-07-17T08:04:47.729Z,25.06
2017-07-17T08:05:57.340Z,25.15
2017-07-17T08:07:06.302Z,25.09
2017-07-17T08:08:15.277Z,25.14
2017-07-17T08:09:23.922Z,25.13
2017-07-17T08:10:33.373Z,25.17
2017-07-17T08:11:42.669Z,25.17
2017-07-17T08:12:51.632Z,25.17
2017-07-17T08:14:00.919Z,25.14
2017-07-17T08:15:09.574Z,25.2
2017-07-17T08:16:18.903Z,25.24
2017-07-17T08:17:27.580Z,25.21
2017-07-17T08:18:36.566Z,25.2
2017-07-17T08:19:45.564Z,25.18
2017-07-17T08:20:54.214Z,25.24
2017-07-17T08:22:03.590Z,25.23
2017-07-17T08:23:12.546Z,25.17
2017-07-17T08:24:21.535Z,25.23
2017-07-17T08:25:30.530Z,25.18
2017-07-17T08:26:39.812Z,25.24
2017-07-17T08:27:48.630Z,25.18
2017-07-17T08:28:57.924Z,25.17
2017-07-17T08:30:06.587Z,25.18
2017-07-17T08:31:15.243Z,25.2
2017-07-17T08:32:24.229Z,25.15
2017-07-17T08:33:34.056Z,25.18
2017-07-17T08:34:43.365Z,25.17
2017-07-17T08:35:52.967Z,25.13
2017-07-17T08:37:01.960Z,25.17
2017-07-17T08:38:11.254Z,25.17
2017-07-17T08:39:20.700Z,25.17
2017-07-17T08:40:29.988Z,25.14
2017-07-17T08:41:38.963Z,25.17
2017-07-17T08:42:47.622Z,25.08
2017-07-17T08:43:56.610Z,25.09
2017-07-17T08:45:05.771Z,25.18
2017-07-17T08:46:14.732Z,25.1
2017-07-17T08:47:24.341Z,25.13
2017-07-17T08:48:33.329Z,25.06
2017-07-17T08:49:42.942Z,25.06
2017-07-17T08:50:52.542Z,25.09
2017-07-17T08:52:01.532Z,25.05
2017-07-17T08:53:10.809Z,25.15
2017-07-17T08:54:19.789Z,25.1
2017-07-17T08:55:28.440Z,25.08
2017-07-17T08:56:37.501Z,25.03
2017-07-17T08:57:46.457Z,25.08
2017-07-17T08:58:55.124Z,25.14
2017-07-17T09:00:04.716Z,25.17
2017-07-17T09:01:14.008Z,25.06
2017-07-17T09:02:23.661Z,25.13
2017-07-17T09:03:32.630Z,25.09
2017-07-17T09:04:41.910Z,25.15
2017-07-17T09:05:50.563Z,25.09
2017-07-17T09:06:59.888Z,25.14
2017-07-17T09:08:08.861Z,25.14
2017-07-17T09:09:17.834Z,25.14
2017-07-17T09:10:26.496Z,25.18
2017-07-17T09:11:35.788Z,25.21
2017-07-17T09:12:45.059Z,25.17
2017-07-17T09:13:54.124Z,25.18
2017-07-17T09:15:02.789Z,25.15
2017-07-17T09:16:11.447Z,25.18
2017-07-17T09:17:20.750Z,25.2
2017-07-17T09:18:29.716Z,25.25
2017-07-17T09:19:38.690Z,25.2
2017-07-17T09:20:47.668Z,25.28
2017-07-17T09:21:56.350Z,25.24
2017-07-17T09:23:05.331Z,25.28
2017-07-17T09:24:14.307Z,25.28
2017-07-17T09:25:23.661Z,25.21
2017-07-17T09:26:33.301Z,25.24
2017-07-17T09:27:42.279Z,25.24
2017-07-17T09:28:51.250Z,25.24
2017-07-17T09:30:00.562Z,25.27
2017-07-17T09:31:10.004Z,25.27
2017-07-17T09:32:18.993Z,25.35
2017-07-17T09:33:28.294Z,25.24
2017-07-17T09:34:37.026Z,25.28
2017-07-17T09:35:45.689Z,25.28
2017-07-17T09:36:54.715Z,25.33
2017-07-17T09:38:04.312Z,25.25
2017-07-17T09:39:13.604Z,25.25
2017-07-17T09:40:22.901Z,25.32
2017-07-17T09:41:31.560Z,25.38
2017-07-17T09:42:41.137Z,25.36
2017-07-17T09:43:50.123Z,25.3
2017-07-17T09:44:59.717Z,25.32
2017-07-17T09:46:09.333Z,25.33
2017-07-17T09:47:18.635Z,25.32
2017-07-17T09:48:27.352Z,25.35
2017-07-17T09:49:36.330Z,25.35
2017-07-17T09:50:45.317Z,25.35
2017-07-17T09:51:53.973Z,25.3
2017-07-17T09:53:02.948Z,25.46
2017-07-17T09:54:11.937Z,25.3
2017-07-17T09:55:21.848Z,25.33
2017-07-17T09:56:30.512Z,25.28
2017-07-17T09:57:39.814Z,25.36
2017-07-17T09:58:49.108Z,25.38
2017-07-17T09:59:58.297Z,25.28
2017-07-17T10:01:07.915Z,25.36
2017-07-17T10:02:17.202Z,25.32
2017-07-17T10:03:26.171Z,25.33
2017-07-17T10:04:35.764Z,25.38
2017-07-17T10:05:44.516Z,25.38
2017-07-17T10:06:53.810Z,25.39
2017-07-17T10:08:02.778Z,25.4
2017-07-17T10:09:11.749Z,25.35
2017-07-17T10:10:21.038Z,25.38
2017-07-17T10:11:30.149Z,25.42
2017-07-17T10:12:39.437Z,25.36
2017-07-17T10:13:48.095Z,25.38
2017-07-17T10:14:57.387Z,25.35
2017-07-17T10:16:07.005Z,25.42
2017-07-17T10:17:15.807Z,25.39
2017-07-17T10:18:24.846Z,25.42
2017-07-17T10:19:34.140Z,25.39
2017-07-17T10:20:43.768Z,25.38
2017-07-17T10:21:53.452Z,25.36
2017-07-17T10:23:03.247Z,25.46
2017-07-17T10:24:11.905Z,25.39
2017-07-17T10:25:20.883Z,25.38
2017-07-17T10:26:29.862Z,25.39
2017-07-17T10:27:38.853Z,25.39
2017-07-17T10:28:47.564Z,25.35
2017-07-17T10:29:56.850Z,25.39
2017-07-17T10:31:05.507Z,25.39
2017-07-17T10:32:14.490Z,25.47
2017-07-17T10:33:23.183Z,25.36
2017-07-17T10:34:32.794Z,25.5
2017-07-17T10:35:41.446Z,25.5
2017-07-17T10:36:50.417Z,25.45
2017-07-17T10:37:59.396Z,25.52
2017-07-17T10:39:08.367Z,25.52
2017-07-17T10:40:17.487Z,25.45
2017-07-17T10:41:26.456Z,25.45
2017-07-17T10:42:35.117Z,25.5
2017-07-17T10:43:44.081Z,25.47
2017-07-17T10:44:53.359Z,25.55
2017-07-17T10:46:02.023Z,25.46
2017-07-17T10:47:11.293Z,25.57
2017-07-17T10:48:20.263Z,25.46
2017-07-17T10:49:29.220Z,25.47
2017-07-17T10:50:37.881Z,25.6
2017-07-17T10:51:46.948Z,25.58
2017-07-17T10:52:55.924Z,25.58
2017-07-17T10:54:05.504Z,25.64
2017-07-17T10:55:14.153Z,25.6
2017-07-17T10:56:22.788Z,25.61
2017-07-17T10:57:32.221Z,25.58
2017-07-17T10:58:41.498Z,25.58
2017-07-17T10:59:50.161Z,25.64
2017-07-17T11:00:59.759Z,25.69
2017-07-17T11:02:08.403Z,25.7
2017-07-17T11:03:17.989Z,25.67
2017-07-17T11:04:27.267Z,25.6
2017-07-17T11:05:36.231Z,25.67
2017-07-17T11:06:44.876Z,25.67
2017-07-17T11:07:53.549Z,25.7
2017-07-17T11:09:02.563Z,25.67
2017-07-17T11:10:11.238Z,25.69
2017-07-17T11:11:20.524Z,25.82
2017-07-17T11:12:29.812Z,25.72
2017-07-17T11:13:38.812Z,25.79
2017-07-17T11:14:47.763Z,25.82
2017-07-17T11:15:56.430Z,25.8
2017-07-17T11:17:05.719Z,25.77
2017-07-17T11:18:14.370Z,25.9
2017-07-17T11:19:23.660Z,25.85
2017-07-17T11:20:33.022Z,25.83
2017-07-17T11:21:42.933Z,25.83
2017-07-17T11:22:51.898Z,25.9
2017-07-17T11:24:00.899Z,25.85
2017-07-17T11:25:10.500Z,25.8
2017-07-17T11:26:19.358Z,25.8
2017-07-17T11:27:28.629Z,25.87
2017-07-17T11:28:37.921Z,25.87
2017-07-17T11:29:47.269Z,25.88
2017-07-17T11:30:56.242Z,25.91
2017-07-17T11:32:05.822Z,25.91
2017-07-17T11:33:14.806Z,25.88
2017-07-17T11:34:23.794Z,25.94
2017-07-17T11:35:32.774Z,25.9
2017-07-17T11:36:42.056Z,25.91
2017-07-17T11:37:51.388Z,25.91
2017-07-17T11:39:00.046Z,25.94
2017-07-17T11:40:09.016Z,25.87
2017-07-17T11:41:17.671Z,25.88
2017-07-17T11:42:26.635Z,25.85
2017-07-17T11:43:36.084Z,25.9
2017-07-17T11:44:45.365Z,25.92
2017-07-17T11:45:54.326Z,25.82
2017-07-17T11:56:54.667Z,25.79
2017-07-17T11:59:13.096Z,25.82
2017-07-17T12:00:22.700Z,25.82
2017-07-17T12:01:31.350Z,25.91
2017-07-17T12:02:40.952Z,25.9
2017-07-17T12:03:51.185Z,25.87
2017-07-17T12:06:08.986Z,25.85
2017-07-17T12:07:17.988Z,25.85
2017-07-17T12:08:27.275Z,25.82
2017-07-17T12:09:35.946Z,25.82
2017-07-17T12:10:45.695Z,25.92
2017-07-17T12:11:54.654Z,25.83
2017-07-17T12:13:03.627Z,25.87
2017-07-17T12:14:12.932Z,25.82
2017-07-17T12:15:22.238Z,25.94
2017-07-17T12:16:30.913Z,25.87
2017-07-17T12:17:39.875Z,25.92
2017-07-17T12:18:48.834Z,25.88
2017-07-17T12:19:58.116Z,25.95
2017-07-17T12:21:07.719Z,25.94
2017-07-17T12:22:17.793Z,25.91
2017-07-17T12:23:27.697Z,26.05
2017-07-17T12:24:36.346Z,26.01
2017-07-17T12:25:45.025Z,25.95
2017-07-17T12:26:54.611Z,26.01
2017-07-17T12:28:03.743Z,26.02
2017-07-17T12:29:13.034Z,25.92
2017-07-17T12:30:21.684Z,26.02
2017-07-17T12:31:31.286Z,25.95
2017-07-17T12:32:39.944Z,25.94
2017-07-17T12:33:49.286Z,26.09
2017-07-17T12:34:58.585Z,26.02
2017-07-17T12:36:08.216Z,25.98
2017-07-17T12:37:17.509Z,25.94
2017-07-17T12:38:26.474Z,25.95
2017-07-17T12:39:35.869Z,25.94
2017-07-17T12:40:44.834Z,25.97
2017-07-17T12:41:54.145Z,25.98
2017-07-17T12:43:03.129Z,26.01
2017-07-17T12:44:12.413Z,25.94
2017-07-17T12:45:21.804Z,25.98
2017-07-17T12:46:30.774Z,26.06
2017-07-17T12:47:39.440Z,25.99
2017-07-17T12:48:48.740Z,26.01
2017-07-17T12:49:57.704Z,26.02
2017-07-17T12:51:07.657Z,26.07
2017-07-17T12:52:16.622Z,25.99
2017-07-17T12:53:25.272Z,25.97
2017-07-17T12:54:34.876Z,25.98
2017-07-17T12:55:44.479Z,26.05
2017-07-17T12:56:53.591Z,25.98
2017-07-17T12:58:02.880Z,25.95
2017-07-17T12:59:11.871Z,25.95
2017-07-17T13:00:21.185Z,25.99
2017-07-17T13:01:30.507Z,25.91
2017-07-17T13:02:39.217Z,25.99
2017-07-17T13:03:47.874Z,26.01
2017-07-17T13:04:57.164Z,25.95
2017-07-17T13:06:06.454Z,25.98
2017-07-17T13:07:15.097Z,25.94
2017-07-17T13:08:24.859Z,25.94
2017-07-17T13:09:33.833Z,25.97
2017-07-17T13:10:42.807Z,25.98
2017-07-17T13:11:52.085Z,25.94
2017-07-17T13:13:01.364Z,25.97
2017-07-17T13:14:10.959Z,25.94
2017-07-17T13:15:19.931Z,25.92
2017-07-17T13:16:28.927Z,25.94
2017-07-17T13:17:38.861Z,25.94
2017-07-17T13:18:48.140Z,25.91
2017-07-17T13:19:57.264Z,25.91
2017-07-17T13:21:06.871Z,25.92
2017-07-17T13:22:16.169Z,25.88
2017-07-17T13:23:25.140Z,25.88
2017-07-17T13:24:34.121Z,25.87
2017-07-17T13:25:43.512Z,25.9
2017-07-17T13:26:52.806Z,25.92
2017-07-17T13:28:02.108Z,25.88
2017-07-17T13:29:11.100Z,25.91
2017-07-17T13:30:20.391Z,25.9
2017-07-17T13:31:29.520Z,25.95
2017-07-17T13:32:38.487Z,25.9
2017-07-17T13:33:47.793Z,25.94
2017-07-17T13:34:57.417Z,25.94
2017-07-17T13:36:06.707Z,25.94
2017-07-17T13:37:15.831Z,25.94
2017-07-17T13:38:24.802Z,25.91
2017-07-17T13:39:34.083Z,25.9
2017-07-17T13:40:43.073Z,25.88
2017-07-17T13:41:52.660Z,25.9
2017-07-17T13:43:01.782Z,25.87
2017-07-17T13:44:10.772Z,25.91
2017-07-17T13:45:19.427Z,25.9
2017-07-17T13:46:28.092Z,25.91
2017-07-17T13:47:37.391Z,25.88
2017-07-17T13:48:46.469Z,25.91
2017-07-17T13:49:55.456Z,25.9
2017-07-17T13:51:04.431Z,25.88
2017-07-17T13:52:13.132Z,25.87
2017-07-17T13:53:22.116Z,25.91
2017-07-17T13:54:32.490Z,25.91
2017-07-17T13:55:42.121Z,25.88
2017-07-17T13:56:52.042Z,25.88
2017-07-17T13:58:01.973Z,25.91
2017-07-17T13:59:11.596Z,25.9
2017-07-17T14:00:21.580Z,25.9
2017-07-17T14:01:31.197Z,25.9
2017-07-17T14:02:41.151Z,25.79
2017-07-17T14:03:51.383Z,25.88
2017-07-17T14:05:01.003Z,25.82
2017-07-17T14:06:10.957Z,25.82
2017-07-17T14:07:20.593Z,25.87
2017-07-17T14:08:30.528Z,25.8
2017-07-17T14:09:40.452Z,25.77
2017-07-17T14:10:50.065Z,25.79
2017-07-17T14:12:00.105Z,25.82
2017-07-17T14:13:09.744Z,25.77
2017-07-17T14:14:19.394Z,25.76
2017-07-17T14:15:29.016Z,25.69
2017-07-17T14:16:39.250Z,25.73
2017-07-17T14:17:49.511Z,25.73
2017-07-17T14:18:59.126Z,25.69
2017-07-17T14:20:09.404Z,25.7
2017-07-17T14:21:18.432Z,25.72
2017-07-17T14:22:28.095Z,25.7
2017-07-17T14:23:38.017Z,25.69
2017-07-17T14:24:47.950Z,25.7
2017-07-17T14:25:57.268Z,25.7
2017-07-17T14:27:06.881Z,25.75
2017-07-17T14:28:17.111Z,25.7
2017-07-17T14:29:27.336Z,25.69
2017-07-17T14:30:37.265Z,25.67
2017-07-17T14:31:47.204Z,25.67
2017-07-17T14:32:57.432Z,25.69
2017-07-17T14:34:07.041Z,25.69
2017-07-17T14:35:16.724Z,25.67
2017-07-17T14:36:26.376Z,25.72
2017-07-17T14:37:36.314Z,25.69
2017-07-17T14:38:46.545Z,25.64
2017-07-17T14:39:56.177Z,25.72
2017-07-17T14:41:06.251Z,25.75
2017-07-17T14:42:16.504Z,25.72
2017-07-17T14:43:26.435Z,25.69
2017-07-17T14:44:36.370Z,25.7
2017-07-17T14:45:46.649Z,25.73
2017-07-17T14:46:57.074Z,25.65
2017-07-17T14:48:06.689Z,25.79
2017-07-17T14:49:16.644Z,25.72
2017-07-17T14:50:26.876Z,25.75
2017-07-17T14:51:37.107Z,25.72
2017-07-17T14:52:47.087Z,25.69
2017-07-17T14:53:56.739Z,25.65
2017-07-17T14:55:06.672Z,25.65
2017-07-17T14:56:16.602Z,25.69
2017-07-17T14:57:26.226Z,25.7
2017-07-17T14:58:36.148Z,25.69
2017-07-17T14:59:45.782Z,25.7
2017-07-17T15:00:55.407Z,25.67
2017-07-17T15:02:05.673Z,25.67
2017-07-17T15:03:15.603Z,25.67
2017-07-17T15:04:25.230Z,25.65
2017-07-17T15:05:35.157Z,25.7
2017-07-17T15:06:44.773Z,25.67
2017-07-17T15:07:54.702Z,25.65
2017-07-17T15:09:04.335Z,25.72
2017-07-17T15:10:14.052Z,25.7
2017-07-17T15:11:23.989Z,25.72
2017-07-17T15:12:33.304Z,25.72
2017-07-17T15:13:43.547Z,25.7
2017-07-17T15:14:53.777Z,25.69
2017-07-17T15:16:03.863Z,25.77
2017-07-17T15:17:14.095Z,25.7
2017-07-17T15:18:24.029Z,25.67
2017-07-17T15:19:34.271Z,25.69
2017-07-17T15:20:44.205Z,25.69
2017-07-17T15:21:53.817Z,25.62
2017-07-17T15:23:03.740Z,25.69
2017-07-17T15:24:13.663Z,25.73
2017-07-17T15:25:23.910Z,25.73
2017-07-17T15:26:33.832Z,25.73
2017-07-17T15:27:43.595Z,25.65